createdAt,value
2023-02-11T00:00:00.546Z,9.20
2023-02-11T00:00:36.231Z,9.38
2023-02-11T00:01:09.537Z,9.50
2023-02-11T00:01:42.153Z,9.23
2023-02-11T00:02:15.794Z,9.00
2023-02-11T00:02:48.536Z,9.07
2023-02-11T00:03:21.305Z,9.70
2023-02-11T00:03:55.829Z,9.80
2023-02-11T00:04:31.559Z,8.98
2023-02-11T00:05:05.093Z,9.25
2023-02-11T00:05:39.261Z,8.65
2023-02-11T00:06:12.504Z,10.30
2023-02-11T00:06:45.267Z,10.00
2023-02-11T00:07:18.928Z,8.48
2023-02-11T00:07:51.520Z,10.15
2023-02-11T00:08:24.265Z,9.70
2023-02-11T00:09:01.001Z,9.43
2023-02-11T00:09:33.696Z,10.07
2023-02-11T00:10:09.091Z,9.40
2023-02-11T00:10:42.699Z,9.38
2023-02-11T00:11:16.651Z,10.38
2023-02-11T00:11:49.410Z,9.27
2023-02-11T00:12:23.210Z,9.05
2023-02-11T00:12:55.990Z,9.32
2023-02-11T00:13:30.606Z,8.57
2023-02-11T00:14:09.694Z,8.90
2023-02-11T00:14:42.577Z,8.73
2023-02-11T00:15:15.305Z,9.40
2023-02-11T00:15:49.423Z,9.13
2023-02-11T00:16:22.416Z,9.02
2023-02-11T00:16:55.270Z,9.27
2023-02-11T00:17:29.300Z,9.48
2023-02-11T00:18:01.946Z,8.95
2023-02-11T00:18:36.581Z,9.93
2023-02-11T00:19:11.562Z,9.07
2023-02-11T00:19:44.545Z,8.95
2023-02-11T00:20:17.406Z,9.32
2023-02-11T00:20:51.339Z,9.00
2023-02-11T00:21:28.486Z,9.82
2023-02-11T00:22:02.209Z,8.80
2023-02-11T00:22:34.789Z,8.55
2023-02-11T00:23:07.614Z,8.52
2023-02-11T00:23:41.384Z,9.07
2023-02-11T00:24:14.251Z,9.30
2023-02-11T00:24:48.798Z,9.45
2023-02-11T00:25:23.888Z,8.70
2023-02-11T00:25:56.656Z,8.82
2023-02-11T00:26:31.937Z,9.15
2023-02-11T00:27:07.232Z,8.98
2023-02-11T00:27:40.085Z,9.00
2023-02-11T00:28:13.116Z,8.43
2023-02-11T00:28:48.210Z,9.40
2023-02-11T00:29:20.973Z,8.30
2023-02-11T00:29:53.894Z,9.38
2023-02-11T00:30:27.806Z,8.55
2023-02-11T00:31:02.705Z,8.40
2023-02-11T00:31:35.705Z,8.50
2023-02-11T00:32:12.853Z,8.23
2023-02-11T00:32:45.710Z,8.55
2023-02-11T00:33:18.464Z,8.65
2023-02-11T00:33:52.855Z,9.32
2023-02-11T00:34:27.315Z,8.73
2023-02-11T00:35:00.270Z,8.43
2023-02-11T00:35:34.011Z,8.23
2023-02-11T00:36:09.209Z,8.57
2023-02-11T00:36:42.320Z,9.02
2023-02-11T00:37:15.979Z,8.02
2023-02-11T00:37:48.737Z,8.18
2023-02-11T00:38:21.610Z,8.38
2023-02-11T00:38:56.960Z,8.73
2023-02-11T00:39:30.027Z,8.98
2023-02-11T00:40:05.649Z,8.73
2023-02-11T00:40:41.726Z,8.55
2023-02-11T00:41:15.600Z,9.10
2023-02-11T00:41:48.212Z,8.10
2023-02-11T00:42:21.802Z,8.63
2023-02-11T00:42:54.427Z,7.75
2023-02-11T00:43:27.325Z,8.00
2023-02-11T00:44:01.169Z,8.38
2023-02-11T00:44:33.916Z,8.25
2023-02-11T00:45:07.983Z,8.18
2023-02-11T00:45:43.318Z,8.50
2023-02-11T00:46:16.542Z,7.80
2023-02-11T00:46:49.234Z,8.95
2023-02-11T00:47:23.167Z,8.68
2023-02-11T00:47:56.037Z,8.48
2023-02-11T00:48:29.014Z,8.35
2023-02-11T00:49:03.125Z,8.38
2023-02-11T00:49:37.077Z,8.45
2023-02-11T00:50:10.100Z,8.68
2023-02-11T00:50:43.834Z,7.60
2023-02-11T00:51:16.617Z,7.95
2023-02-11T00:51:49.349Z,8.15
2023-02-11T00:52:23.227Z,8.77
2023-02-11T00:52:55.959Z,7.85
2023-02-11T00:53:28.761Z,7.95
2023-02-11T00:54:02.660Z,8.48
2023-02-11T00:54:35.851Z,8.95
2023-02-11T00:55:08.945Z,8.23
2023-02-11T00:55:43.993Z,7.93
2023-02-11T00:56:16.657Z,8.00
2023-02-11T00:56:49.251Z,7.88
2023-02-11T00:57:24.190Z,8.40
2023-02-11T00:57:57.134Z,7.95
2023-02-11T00:58:30.015Z,8.60
2023-02-11T00:59:03.736Z,7.78
2023-02-11T00:59:36.493Z,8.60
2023-02-11T01:00:12.007Z,7.43
2023-02-11T01:00:45.860Z,8.18
2023-02-11T01:01:19.968Z,8.85
2023-02-11T01:01:55.122Z,7.10
2023-02-11T01:02:29.616Z,8.20
2023-02-11T01:03:02.479Z,7.60
2023-02-11T01:03:37.909Z,8.10
2023-02-11T01:04:10.635Z,7.65
2023-02-11T01:04:43.496Z,7.68
2023-02-11T01:05:17.294Z,7.53
2023-02-11T01:05:50.881Z,7.35
2023-02-11T01:06:23.941Z,7.03
2023-02-11T01:06:59.451Z,7.10
2023-02-11T01:07:33.479Z,7.47
2023-02-11T01:08:07.163Z,8.15
2023-02-11T01:08:40.359Z,7.50
2023-02-11T01:09:15.193Z,7.40
2023-02-11T01:09:47.997Z,8.30
2023-02-11T01:10:21.014Z,8.13
2023-02-11T01:11:00.437Z,7.03
2023-02-11T01:11:33.261Z,7.75
2023-02-11T01:12:06.432Z,7.40
2023-02-11T01:12:40.985Z,7.40
2023-02-11T01:13:13.820Z,8.20
2023-02-11T01:13:47.294Z,7.43
2023-02-11T01:14:22.421Z,7.45
2023-02-11T01:14:57.137Z,7.43
2023-02-11T01:15:30.276Z,8.13
2023-02-11T01:16:04.944Z,7.03
2023-02-11T01:16:37.695Z,7.28
2023-02-11T01:17:11.573Z,6.72
2023-02-11T01:17:44.588Z,7.65
2023-02-11T01:18:17.833Z,7.03
2023-02-11T01:18:51.855Z,7.55
2023-02-11T01:19:24.819Z,7.43
2023-02-11T01:20:03.156Z,7.00
2023-02-11T01:20:35.961Z,7.05
2023-02-11T01:21:08.849Z,7.30
2023-02-11T01:21:42.732Z,8.00
2023-02-11T01:22:15.471Z,7.38
2023-02-11T01:22:48.197Z,7.35
2023-02-11T01:23:21.930Z,8.00
2023-02-11T01:23:58.151Z,7.65
2023-02-11T01:24:30.885Z,7.50
2023-02-11T01:25:03.810Z,7.85
2023-02-11T01:25:37.876Z,7.45
2023-02-11T01:26:11.998Z,7.35
2023-02-11T01:26:44.567Z,7.00
2023-02-11T01:27:18.739Z,6.75
2023-02-11T01:27:53.825Z,7.10
2023-02-11T01:28:30.039Z,7.13
2023-02-11T01:29:06.400Z,7.22
2023-02-11T01:29:39.226Z,7.00
2023-02-11T01:30:13.937Z,7.15
2023-02-11T01:30:48.142Z,7.38
2023-02-11T01:31:20.775Z,7.65
2023-02-11T01:31:53.621Z,7.85
2023-02-11T01:32:27.533Z,7.53
2023-02-11T01:33:00.209Z,7.53
2023-02-11T01:33:33.415Z,7.05
2023-02-11T01:34:07.544Z,7.72
2023-02-11T01:34:42.735Z,6.72
2023-02-11T01:35:15.465Z,7.72
2023-02-11T01:35:49.419Z,7.30
2023-02-11T01:36:22.451Z,7.93
2023-02-11T01:36:58.227Z,6.78
2023-02-11T01:37:34.443Z,7.22
2023-02-11T01:38:07.465Z,7.60
2023-02-11T01:38:41.325Z,6.88
2023-02-11T01:39:15.355Z,7.05
2023-02-11T01:39:48.305Z,7.43
2023-02-11T01:40:20.979Z,7.13
2023-02-11T01:40:56.649Z,7.07
2023-02-11T01:41:30.592Z,6.95
2023-02-11T01:42:03.615Z,7.63
2023-02-11T01:42:37.285Z,7.47
2023-02-11T01:43:11.627Z,7.10
2023-02-11T01:43:48.061Z,7.43
2023-02-11T01:44:26.224Z,7.57
2023-02-11T01:45:01.201Z,6.45
2023-02-11T01:45:59.951Z,6.65
2023-02-11T01:46:36.125Z,6.43
2023-02-11T01:47:10.056Z,7.47
2023-02-11T01:47:42.609Z,6.90
2023-02-11T01:48:21.226Z,7.13
2023-02-11T01:48:59.517Z,7.35
2023-02-11T01:49:35.313Z,6.70
2023-02-11T01:50:08.022Z,6.97
2023-02-11T01:50:43.808Z,6.80
2023-02-11T01:51:22.986Z,7.20
2023-02-11T01:52:01.905Z,6.68
2023-02-11T01:52:39.644Z,7.15
2023-02-11T01:53:32.576Z,6.22
2023-02-11T01:54:25.958Z,6.55
2023-02-11T01:55:21.571Z,6.63
2023-02-11T01:56:14.884Z,6.30
2023-02-11T01:57:12.432Z,6.25
2023-02-11T01:57:50.075Z,5.45
2023-02-11T01:58:23.249Z,6.22
2023-02-11T01:59:04.046Z,5.80
2023-02-11T01:59:43.173Z,6.03
2023-02-11T02:00:21.060Z,6.82
2023-02-11T02:00:54.034Z,6.72
2023-02-11T02:01:30.291Z,5.95
2023-02-11T02:02:09.489Z,6.30
2023-02-11T02:02:50.240Z,6.15
2023-02-11T02:03:24.763Z,6.90
2023-02-11T02:04:01.256Z,6.32
2023-02-11T02:04:42.700Z,6.30
2023-02-11T02:05:24.695Z,5.75
2023-02-11T02:06:02.798Z,5.68
2023-02-11T02:06:39.574Z,6.07
2023-02-11T02:07:18.140Z,6.25
2023-02-11T02:08:01.928Z,5.82
2023-02-11T02:08:39.377Z,5.32
2023-02-11T02:09:20.326Z,5.88
2023-02-11T02:10:01.887Z,5.32
2023-02-11T02:10:40.972Z,5.65
2023-02-11T02:11:13.738Z,5.90
2023-02-11T02:11:47.437Z,6.00
2023-02-11T02:12:21.561Z,6.25
2023-02-11T02:12:54.863Z,6.57
2023-02-11T02:13:34.699Z,5.88
2023-02-11T02:14:08.957Z,5.43
2023-02-11T02:14:42.668Z,6.13
2023-02-11T02:15:28.071Z,5.70
2023-02-11T02:16:03.046Z,5.68
2023-02-11T02:16:38.676Z,5.95
2023-02-11T02:17:23.204Z,5.70
2023-02-11T02:18:02.837Z,5.30
2023-02-11T02:18:49.153Z,5.40
2023-02-11T02:20:08.354Z,5.28
2023-02-11T02:21:14.405Z,4.75
2023-02-11T02:22:11.093Z,4.95
2023-02-11T02:23:27.834Z,4.75
2023-02-11T02:24:50.807Z,4.75
2023-02-11T02:25:44.802Z,4.75
2023-02-11T02:26:55.245Z,4.93
2023-02-11T02:27:40.536Z,4.65
2023-02-11T02:28:33.990Z,5.07
2023-02-11T02:29:46.778Z,4.60
2023-02-11T02:30:53.606Z,3.63
2023-02-11T02:31:44.699Z,4.63
2023-02-11T02:32:30.012Z,4.43
2023-02-11T02:33:27.526Z,5.25
2023-02-11T02:34:03.005Z,4.82
2023-02-11T02:34:42.388Z,4.22
2023-02-11T02:35:27.799Z,4.70
2023-02-11T02:36:09.340Z,4.60
2023-02-11T02:36:49.155Z,4.72
2023-02-11T02:37:27.878Z,5.15
2023-02-11T02:38:08.375Z,4.60
2023-02-11T02:38:47.182Z,4.70
2023-02-11T02:39:26.442Z,5.72
2023-02-11T02:40:04.538Z,4.95
2023-02-11T02:40:42.326Z,4.60
2023-02-11T02:41:18.065Z,4.78
2023-02-11T02:41:53.217Z,4.00
2023-02-11T02:42:26.278Z,4.65
2023-02-11T02:43:01.153Z,5.30
2023-02-11T02:43:37.511Z,5.18
2023-02-11T02:44:10.223Z,4.70
2023-02-11T02:44:48.997Z,5.07
2023-02-11T02:45:23.118Z,5.30
2023-02-11T02:45:56.233Z,4.97
2023-02-11T02:46:31.147Z,5.00
2023-02-11T02:47:04.910Z,4.88
2023-02-11T02:47:38.971Z,4.70
2023-02-11T02:48:25.733Z,4.25
2023-02-11T02:49:00.257Z,4.35
2023-02-11T02:49:33.005Z,5.13
2023-02-11T02:50:08.641Z,5.18
2023-02-11T02:50:42.602Z,5.07
2023-02-11T02:51:47.342Z,5.00
2023-02-11T02:52:36.152Z,4.70
2023-02-11T02:53:24.665Z,4.32
2023-02-11T02:54:09.138Z,4.82
2023-02-11T02:55:02.300Z,4.20
2023-02-11T02:55:52.046Z,4.35
2023-02-11T02:56:33.764Z,4.60
2023-02-11T02:57:21.001Z,4.95
2023-02-11T02:58:06.129Z,5.00
2023-02-11T02:59:03.867Z,4.75
2023-02-11T02:59:49.455Z,4.40
2023-02-11T03:00:31.811Z,4.47
2023-02-11T03:01:15.633Z,4.70
2023-02-11T03:01:55.066Z,4.75
2023-02-11T03:02:34.847Z,4.72
2023-02-11T03:03:18.160Z,4.35
2023-02-11T03:03:59.039Z,4.75
2023-02-11T03:04:40.542Z,4.30
2023-02-11T03:05:22.129Z,4.80
2023-02-11T03:05:58.790Z,4.50
2023-02-11T03:06:37.702Z,4.55
2023-02-11T03:07:18.223Z,4.57
2023-02-11T03:07:58.339Z,4.47
2023-02-11T03:08:37.106Z,4.45
2023-02-11T03:09:14.714Z,4.72
2023-02-11T03:09:52.592Z,4.47
2023-02-11T03:10:28.751Z,4.47
2023-02-11T03:11:02.519Z,4.57
2023-02-11T03:11:38.543Z,4.65
2023-02-11T03:12:12.977Z,4.35
2023-02-11T03:12:48.093Z,5.20
2023-02-11T03:13:25.909Z,4.28
2023-02-11T03:14:03.664Z,4.93
2023-02-11T03:14:36.659Z,5.15
2023-02-11T03:15:11.690Z,4.68
2023-02-11T03:15:46.891Z,4.30
2023-02-11T03:16:23.382Z,4.38
2023-02-11T03:16:59.495Z,4.28
2023-02-11T03:17:33.914Z,4.75
2023-02-11T03:18:09.938Z,4.70
2023-02-11T03:18:50.819Z,4.13
2023-02-11T03:19:27.034Z,4.40
2023-02-11T03:20:00.538Z,4.63
2023-02-11T03:20:37.346Z,4.22
2023-02-11T03:21:11.414Z,5.60
2023-02-11T03:21:46.346Z,5.18
2023-02-11T03:22:24.244Z,4.38
2023-02-11T03:23:02.502Z,4.75
2023-02-11T03:23:39.735Z,4.18
2023-02-11T03:24:18.837Z,4.60
2023-02-11T03:24:51.953Z,5.00
2023-02-11T03:25:30.334Z,4.65
2023-02-11T03:26:10.348Z,4.50
2023-02-11T03:26:48.917Z,4.85
2023-02-11T03:27:29.093Z,4.75
2023-02-11T03:28:08.592Z,4.13
2023-02-11T03:28:46.056Z,3.80
2023-02-11T03:29:32.544Z,4.65
2023-02-11T03:30:11.451Z,4.25
2023-02-11T03:30:50.778Z,4.22
2023-02-11T03:31:29.996Z,4.30
2023-02-11T03:32:08.502Z,3.92
2023-02-11T03:32:47.356Z,4.22
2023-02-11T03:33:25.393Z,4.45
2023-02-11T03:34:04.539Z,4.45
2023-02-11T03:34:45.414Z,4.05
2023-02-11T03:35:22.116Z,4.75
2023-02-11T03:35:58.446Z,4.68
2023-02-11T03:36:37.084Z,4.68
2023-02-11T03:37:13.981Z,4.70
2023-02-11T03:37:51.853Z,4.63
2023-02-11T03:38:31.071Z,4.65
2023-02-11T03:39:05.594Z,4.38
2023-02-11T03:39:42.238Z,4.47
2023-02-11T03:40:20.992Z,4.55
2023-02-11T03:40:56.024Z,4.75
2023-02-11T03:41:31.614Z,4.53
2023-02-11T03:42:06.192Z,4.53
2023-02-11T03:42:43.399Z,4.63
2023-02-11T03:43:19.996Z,4.50
2023-02-11T03:43:56.216Z,3.95
2023-02-11T03:44:35.215Z,4.45
2023-02-11T03:45:13.322Z,5.10
2023-02-11T03:45:48.585Z,4.15
2023-02-11T03:46:25.720Z,4.68
2023-02-11T03:47:00.192Z,5.18
2023-02-11T03:47:36.800Z,4.85
2023-02-11T03:48:14.785Z,4.57
2023-02-11T03:48:55.913Z,4.60
2023-02-11T03:49:33.128Z,5.03
2023-02-11T03:50:09.165Z,4.47
2023-02-11T03:50:43.737Z,3.97
2023-02-11T03:51:17.478Z,4.38
2023-02-11T03:51:53.197Z,4.22
2023-02-11T03:52:28.438Z,4.28
2023-02-11T03:53:03.238Z,4.50
2023-02-11T03:53:37.822Z,4.38
2023-02-11T03:54:16.163Z,4.78
2023-02-11T03:54:53.958Z,5.05
2023-02-11T03:55:29.567Z,4.22
2023-02-11T03:56:06.951Z,4.85
2023-02-11T03:56:49.553Z,4.95
2023-02-11T03:57:23.469Z,4.15
2023-02-11T03:57:56.416Z,4.88
2023-02-11T03:58:29.257Z,4.72
2023-02-11T03:59:03.034Z,5.20
2023-02-11T03:59:50.884Z,4.85
2023-02-11T04:00:31.795Z,4.38
2023-02-11T04:01:05.423Z,4.82
2023-02-11T04:01:38.411Z,4.80
2023-02-11T04:02:11.980Z,4.53
2023-02-11T04:02:44.964Z,4.43
2023-02-11T04:03:17.799Z,4.28
2023-02-11T04:03:51.642Z,4.75
2023-02-11T04:04:24.351Z,4.10
2023-02-11T04:04:58.704Z,4.93
2023-02-11T04:05:32.887Z,4.57
2023-02-11T04:06:06.010Z,4.63
2023-02-11T04:06:38.801Z,4.30
2023-02-11T04:07:13.692Z,4.03
2023-02-11T04:07:46.280Z,4.07
2023-02-11T04:08:20.097Z,3.85
2023-02-11T04:08:52.833Z,4.35
2023-02-11T04:09:25.483Z,4.53
2023-02-11T04:09:59.177Z,4.53
2023-02-11T04:10:31.864Z,4.38
2023-02-11T04:11:04.546Z,4.35
2023-02-11T04:11:38.313Z,4.45
2023-02-11T04:12:10.971Z,4.18
2023-02-11T04:12:43.609Z,4.28
2023-02-11T04:13:17.471Z,3.80
2023-02-11T04:13:53.170Z,4.25
2023-02-11T04:14:25.843Z,4.03
2023-02-11T04:14:59.719Z,3.92
2023-02-11T04:15:32.680Z,4.32
2023-02-11T04:16:05.704Z,4.10
2023-02-11T04:16:39.463Z,3.90
2023-02-11T04:17:12.569Z,3.88
2023-02-11T04:17:45.293Z,4.25
2023-02-11T04:18:20.510Z,4.35
2023-02-11T04:18:54.258Z,3.95
2023-02-11T04:19:27.098Z,4.03
2023-02-11T04:20:01.589Z,4.18
2023-02-11T04:20:36.714Z,3.78
2023-02-11T04:21:09.592Z,4.10
2023-02-11T04:21:43.750Z,4.65
2023-02-11T04:22:16.520Z,4.25
2023-02-11T04:22:49.273Z,4.60
2023-02-11T04:23:22.962Z,3.80
2023-02-11T04:23:58.131Z,3.85
2023-02-11T04:24:30.896Z,4.18
2023-02-11T04:25:05.180Z,3.90
2023-02-11T04:25:38.092Z,3.50
2023-02-11T04:26:10.840Z,3.90
2023-02-11T04:26:44.552Z,4.35
2023-02-11T04:27:17.324Z,4.43
2023-02-11T04:27:51.045Z,4.00
2023-02-11T04:28:27.146Z,5.07
2023-02-11T04:28:59.881Z,3.90
2023-02-11T04:29:33.821Z,3.63
2023-02-11T04:30:07.872Z,3.67
2023-02-11T04:30:40.595Z,3.60
2023-02-11T04:31:14.404Z,3.88
2023-02-11T04:31:47.318Z,3.90
2023-02-11T04:32:19.978Z,3.80
2023-02-11T04:32:54.383Z,3.65
2023-02-11T04:33:27.404Z,3.70
2023-02-11T04:34:00.007Z,4.40
2023-02-11T04:34:33.733Z,4.20
2023-02-11T04:35:08.382Z,3.63
2023-02-11T04:35:41.118Z,3.63
2023-02-11T04:36:15.063Z,3.60
2023-02-11T04:36:47.670Z,3.70
2023-02-11T04:37:20.464Z,3.67
2023-02-11T04:37:54.204Z,3.50
2023-02-11T04:38:27.662Z,3.75
2023-02-11T04:39:00.255Z,3.72
2023-02-11T04:39:33.987Z,3.75
2023-02-11T04:40:07.698Z,3.28
2023-02-11T04:40:40.562Z,3.53
2023-02-11T04:41:14.379Z,3.58
2023-02-11T04:41:47.010Z,4.20
2023-02-11T04:42:19.650Z,3.83
2023-02-11T04:42:53.297Z,3.92
2023-02-11T04:43:25.860Z,3.70
2023-02-11T04:43:58.712Z,3.50
2023-02-11T04:44:32.720Z,3.67
2023-02-11T04:45:07.293Z,3.35
2023-02-11T04:45:39.985Z,3.35
2023-02-11T04:46:13.799Z,3.58
2023-02-11T04:46:46.549Z,3.70
2023-02-11T04:47:19.192Z,4.07
2023-02-11T04:47:52.889Z,3.55
2023-02-11T04:48:28.293Z,3.42
2023-02-11T04:49:00.940Z,3.10
2023-02-11T04:49:34.575Z,3.40
2023-02-11T04:50:09.171Z,3.80
2023-02-11T04:50:42.612Z,3.63
2023-02-11T04:51:16.384Z,3.95
2023-02-11T04:51:49.721Z,3.40
2023-02-11T04:52:22.326Z,3.30
2023-02-11T04:52:56.035Z,3.33
2023-02-11T04:53:30.502Z,4.13
2023-02-11T04:54:03.267Z,3.78
2023-02-11T04:54:37.046Z,3.55
2023-02-11T04:55:09.878Z,3.58
2023-02-11T04:55:42.578Z,3.47
2023-02-11T04:56:15.254Z,3.42
2023-02-11T04:56:49.774Z,4.00
2023-02-11T04:57:22.428Z,3.50
2023-02-11T04:57:55.692Z,4.28
2023-02-11T04:58:29.602Z,3.55
2023-02-11T04:59:02.452Z,3.47
2023-02-11T04:59:35.051Z,3.90
2023-02-11T05:00:10.126Z,3.50
2023-02-11T05:00:43.907Z,3.90
2023-02-11T05:01:17.650Z,3.03
2023-02-11T05:01:50.366Z,3.53
2023-02-11T05:02:24.002Z,3.33
2023-02-11T05:02:56.965Z,3.50
2023-02-11T05:03:29.972Z,3.47
2023-02-11T05:04:03.829Z,3.30
2023-02-11T05:04:36.880Z,3.83
2023-02-11T05:05:10.944Z,3.20
2023-02-11T05:05:44.977Z,3.40
2023-02-11T05:06:18.085Z,3.15
2023-02-11T05:06:50.906Z,3.25
2023-02-11T05:07:25.083Z,3.28
2023-02-11T05:07:58.157Z,3.10
2023-02-11T05:08:31.129Z,3.58
2023-02-11T05:09:04.803Z,3.10
2023-02-11T05:09:38.602Z,3.47
2023-02-11T05:10:11.336Z,3.67
2023-02-11T05:10:48.367Z,3.65
2023-02-11T05:11:24.920Z,4.20
2023-02-11T05:12:00.128Z,3.67
2023-02-11T05:12:33.871Z,3.40
2023-02-11T05:13:06.573Z,3.40
2023-02-11T05:13:39.329Z,3.20
2023-02-11T05:14:12.951Z,3.33
2023-02-11T05:14:45.844Z,2.95
2023-02-11T05:15:18.737Z,3.25
2023-02-11T05:15:52.538Z,2.90
2023-02-11T05:16:25.463Z,3.30
2023-02-11T05:16:58.153Z,3.30
2023-02-11T05:17:31.724Z,3.53
2023-02-11T05:18:04.656Z,3.22
2023-02-11T05:18:38.977Z,3.40
2023-02-11T05:19:12.925Z,3.20
2023-02-11T05:19:45.517Z,3.20
2023-02-11T05:20:20.068Z,3.42
2023-02-11T05:20:53.664Z,3.08
2023-02-11T05:21:26.470Z,3.30
2023-02-11T05:22:03.168Z,3.05
2023-02-11T05:22:37.118Z,2.97
2023-02-11T05:23:09.779Z,2.90
2023-02-11T05:23:42.991Z,3.20
2023-02-11T05:24:16.695Z,2.95
2023-02-11T05:24:49.462Z,2.97
2023-02-11T05:25:22.218Z,3.30
2023-02-11T05:25:57.727Z,3.00
2023-02-11T05:26:30.397Z,3.03
2023-02-11T05:27:03.210Z,2.95
2023-02-11T05:27:36.885Z,3.88
2023-02-11T05:28:09.746Z,3.40
2023-02-11T05:28:43.228Z,3.70
2023-02-11T05:29:15.839Z,3.10
2023-02-11T05:29:49.512Z,3.65
2023-02-11T05:30:22.429Z,3.25
2023-02-11T05:30:55.225Z,3.83
2023-02-11T05:31:28.889Z,3.25
2023-02-11T05:32:01.680Z,3.35
2023-02-11T05:32:34.420Z,3.30
2023-02-11T05:33:08.174Z,3.15
2023-02-11T05:33:40.949Z,3.05
2023-02-11T05:34:13.444Z,3.65
2023-02-11T05:34:47.260Z,3.90
2023-02-11T05:35:21.447Z,3.05
2023-02-11T05:35:59.023Z,3.22
2023-02-11T05:36:33.539Z,3.53
2023-02-11T05:37:07.360Z,2.75
2023-02-11T05:37:40.173Z,2.78
2023-02-11T05:38:13.015Z,3.65
2023-02-11T05:38:46.687Z,3.72
2023-02-11T05:39:19.362Z,3.67
2023-02-11T05:39:51.939Z,3.00
2023-02-11T05:40:25.635Z,3.17
2023-02-11T05:40:58.608Z,3.35
2023-02-11T05:41:31.504Z,3.50
2023-02-11T05:42:05.565Z,3.30
2023-02-11T05:42:38.336Z,3.47
2023-02-11T05:43:12.732Z,3.55
2023-02-11T05:43:46.414Z,3.78
2023-02-11T05:44:19.107Z,3.83
2023-02-11T05:44:51.766Z,3.42
2023-02-11T05:45:25.494Z,3.00
2023-02-11T05:45:58.418Z,3.20
2023-02-11T05:46:31.343Z,3.15
2023-02-11T05:47:05.287Z,3.08
2023-02-11T05:47:38.081Z,4.03
2023-02-11T05:48:10.709Z,3.70
2023-02-11T05:48:45.064Z,3.42
2023-02-11T05:49:18.019Z,3.63
2023-02-11T05:49:50.596Z,3.22
2023-02-11T05:50:25.868Z,3.78
2023-02-11T05:50:58.831Z,3.80
2023-02-11T05:51:31.557Z,3.63
2023-02-11T05:52:05.799Z,3.80
2023-02-11T05:52:38.412Z,3.95
2023-02-11T05:53:11.986Z,3.55
2023-02-11T05:53:46.029Z,4.00
2023-02-11T05:54:18.749Z,4.32
2023-02-11T05:54:51.596Z,3.75
2023-02-11T05:55:25.158Z,3.85
2023-02-11T05:55:58.401Z,4.07
2023-02-11T05:56:31.330Z,3.88
2023-02-11T05:57:05.341Z,4.47
2023-02-11T05:57:38.017Z,4.07
2023-02-11T05:58:10.661Z,4.22
2023-02-11T05:58:44.337Z,3.80
2023-02-11T05:59:17.005Z,3.92
2023-02-11T05:59:49.626Z,3.58
2023-02-11T06:00:23.756Z,3.42
2023-02-11T06:00:57.002Z,3.90
2023-02-11T06:01:30.690Z,4.43
2023-02-11T06:02:08.058Z,3.60
2023-02-11T06:02:41.005Z,4.15
2023-02-11T06:03:13.741Z,3.60
2023-02-11T06:03:50.178Z,4.22
2023-02-11T06:04:22.996Z,5.10
2023-02-11T06:04:55.638Z,4.20
2023-02-11T06:05:30.816Z,4.45
2023-02-11T06:06:03.515Z,4.03
2023-02-11T06:06:36.263Z,4.10
2023-02-11T06:07:09.987Z,3.72
2023-02-11T06:07:42.721Z,4.10
2023-02-11T06:08:15.428Z,4.07
2023-02-11T06:08:48.968Z,4.30
2023-02-11T06:09:21.673Z,4.35
2023-02-11T06:09:54.309Z,3.83
2023-02-11T06:10:28.621Z,4.55
2023-02-11T06:11:03.778Z,4.35
2023-02-11T06:11:36.685Z,4.45
2023-02-11T06:12:10.334Z,3.88
2023-02-11T06:12:42.912Z,4.32
2023-02-11T06:13:15.503Z,3.90
2023-02-11T06:13:49.132Z,3.85
2023-02-11T06:14:21.953Z,4.28
2023-02-11T06:14:54.614Z,4.43
2023-02-11T06:15:28.462Z,4.50
2023-02-11T06:16:02.686Z,4.72
2023-02-11T06:16:35.340Z,4.10
2023-02-11T06:17:08.934Z,4.20
2023-02-11T06:17:41.551Z,4.55
2023-02-11T06:18:15.251Z,4.68
2023-02-11T06:18:48.019Z,4.93
2023-02-11T06:19:20.606Z,4.22
2023-02-11T06:19:54.322Z,4.80
2023-02-11T06:20:27.184Z,4.13
2023-02-11T06:21:01.315Z,4.38
2023-02-11T06:21:43.506Z,4.93
2023-02-11T06:22:17.092Z,4.22
2023-02-11T06:22:49.696Z,4.50
2023-02-11T06:23:23.464Z,4.40
2023-02-11T06:23:56.216Z,4.80
2023-02-11T06:24:54.611Z,4.25
2023-02-11T06:25:22.691Z,3.92
2023-02-11T06:25:55.344Z,4.72
2023-02-11T06:26:31.065Z,4.30
2023-02-11T06:27:05.412Z,4.80
2023-02-11T06:27:38.231Z,4.28
2023-02-11T06:28:10.958Z,4.97
2023-02-11T06:28:44.609Z,5.70
2023-02-11T06:29:17.241Z,4.78
2023-02-11T06:29:50.174Z,4.60
2023-02-11T06:30:23.759Z,4.75
2023-02-11T06:30:56.370Z,5.25
2023-02-11T06:31:29.541Z,4.53
2023-02-11T06:32:03.321Z,4.90
2023-02-11T06:32:43.855Z,5.10
2023-02-11T06:33:17.364Z,4.88
2023-02-11T06:33:51.187Z,4.68
2023-02-11T06:34:23.714Z,4.10
2023-02-11T06:34:56.278Z,5.65
2023-02-11T06:35:30.026Z,4.45
2023-02-11T06:36:10.133Z,4.85
2023-02-11T06:36:44.201Z,4.25
2023-02-11T06:37:17.802Z,4.70
2023-02-11T06:37:53.995Z,5.00
2023-02-11T06:38:26.767Z,4.35
2023-02-11T06:39:00.449Z,4.40
2023-02-11T06:39:33.226Z,5.05
2023-02-11T06:40:06.906Z,4.50
2023-02-11T06:40:40.620Z,4.30
2023-02-11T06:41:14.303Z,4.38
2023-02-11T06:41:46.944Z,5.30
2023-02-11T06:42:20.649Z,4.68
2023-02-11T06:42:53.436Z,4.07
2023-02-11T06:43:26.153Z,4.40
2023-02-11T06:43:59.740Z,4.60
2023-02-11T06:44:32.402Z,4.47
2023-02-11T06:45:06.254Z,5.03
2023-02-11T06:45:39.855Z,4.30
2023-02-11T06:46:12.765Z,5.35
2023-02-11T06:46:45.316Z,5.07
2023-02-11T06:47:19.008Z,4.80
2023-02-11T06:47:53.045Z,4.72
2023-02-11T06:48:26.775Z,4.72
2023-02-11T06:49:00.631Z,4.97
2023-02-11T06:49:33.519Z,4.95
2023-02-11T06:50:08.293Z,4.80
2023-02-11T06:50:42.162Z,5.30
2023-02-11T06:51:16.318Z,4.80
2023-02-11T06:51:49.043Z,4.70
2023-02-11T06:52:22.871Z,5.07
2023-02-11T06:52:55.511Z,4.75
2023-02-11T06:53:32.449Z,4.85
2023-02-11T06:54:07.487Z,4.28
2023-02-11T06:54:40.128Z,4.05
2023-02-11T06:55:13.843Z,4.30
2023-02-11T06:55:46.504Z,4.35
2023-02-11T06:56:21.333Z,4.85
2023-02-11T06:56:54.966Z,3.83
2023-02-11T06:57:27.630Z,4.40
2023-02-11T06:58:00.265Z,4.70
2023-02-11T06:58:34.481Z,4.50
2023-02-11T06:59:07.762Z,4.60
2023-02-11T06:59:40.425Z,4.57
2023-02-11T07:00:17.452Z,4.20
2023-02-11T07:00:50.068Z,4.22
2023-02-11T07:01:23.722Z,4.97
2023-02-11T07:01:57.563Z,4.35
2023-02-11T07:02:30.405Z,4.80
2023-02-11T07:03:03.442Z,4.90
2023-02-11T07:03:38.121Z,3.67
2023-02-11T07:04:10.945Z,4.50
2023-02-11T07:04:43.593Z,4.85
2023-02-11T07:05:17.170Z,4.15
2023-02-11T07:05:50.054Z,4.38
2023-02-11T07:06:27.970Z,4.15
2023-02-11T07:07:01.933Z,4.35
2023-02-11T07:07:34.687Z,4.50
2023-02-11T07:08:07.374Z,4.68
2023-02-11T07:08:42.663Z,4.60
2023-02-11T07:09:15.455Z,4.95
2023-02-11T07:09:49.168Z,4.38
2023-02-11T07:10:22.008Z,4.35
2023-02-11T07:10:55.015Z,4.90
2023-02-11T07:11:29.933Z,4.70
2023-02-11T07:12:02.887Z,4.10
2023-02-11T07:12:35.705Z,4.75
2023-02-11T07:13:09.631Z,4.20
2023-02-11T07:13:42.725Z,4.50
2023-02-11T07:14:15.727Z,4.90
2023-02-11T07:14:49.606Z,4.30
2023-02-11T07:15:22.394Z,4.45
2023-02-11T07:15:55.406Z,4.60
2023-02-11T07:16:29.563Z,5.10
2023-02-11T07:17:04.197Z,4.50
2023-02-11T07:17:37.197Z,5.53
2023-02-11T07:18:13.620Z,5.28
2023-02-11T07:18:47.955Z,4.32
2023-02-11T07:19:21.166Z,5.25
2023-02-11T07:19:55.108Z,4.60
2023-02-11T07:20:28.121Z,4.70
2023-02-11T07:21:01.389Z,4.55
2023-02-11T07:21:36.862Z,5.07
2023-02-11T07:22:09.912Z,4.93
2023-02-11T07:22:43.001Z,5.68
2023-02-11T07:23:17.044Z,4.43
2023-02-11T07:23:50.080Z,4.85
2023-02-11T07:24:23.503Z,5.03
2023-02-11T07:24:57.490Z,4.72
2023-02-11T07:25:30.395Z,5.50
2023-02-11T07:26:04.471Z,4.78
2023-02-11T07:26:38.550Z,5.47
2023-02-11T07:27:11.468Z,5.68
2023-02-11T07:27:44.448Z,15.48
2023-02-11T07:28:18.336Z,5.47
2023-02-11T07:28:51.686Z,4.75
2023-02-11T07:29:25.658Z,5.38
2023-02-11T07:29:58.704Z,6.72
2023-02-11T07:30:31.615Z,7.22
2023-02-11T07:31:08.170Z,8.48
2023-02-11T07:31:41.275Z,5.25
2023-02-11T07:32:14.752Z,5.65
2023-02-11T07:32:48.748Z,5.13
2023-02-11T07:33:21.555Z,5.57
2023-02-11T07:33:55.784Z,4.97
2023-02-11T07:34:29.953Z,6.63
2023-02-11T07:35:03.992Z,4.97
2023-02-11T07:35:36.858Z,5.13
2023-02-11T07:36:12.129Z,4.85
2023-02-11T07:36:49.240Z,4.65
2023-02-11T07:37:22.193Z,4.93
2023-02-11T07:37:56.136Z,4.47
2023-02-11T07:38:28.977Z,4.78
2023-02-11T07:39:01.943Z,4.78
2023-02-11T07:39:36.092Z,4.05
2023-02-11T07:40:09.218Z,5.25
2023-02-11T07:40:43.295Z,3.88
2023-02-11T07:41:18.657Z,4.75
2023-02-11T07:41:51.726Z,5.05
2023-02-11T07:42:24.845Z,4.65
2023-02-11T07:42:58.876Z,4.60
2023-02-11T07:43:31.981Z,4.75
2023-02-11T07:44:05.159Z,4.40
2023-02-11T07:44:40.174Z,4.65
2023-02-11T07:45:14.204Z,5.00
2023-02-11T07:45:47.173Z,5.22
2023-02-11T07:46:21.585Z,5.18
2023-02-11T07:46:55.524Z,5.25
2023-02-11T07:47:28.601Z,5.25
2023-02-11T07:48:01.494Z,4.78
2023-02-11T07:48:35.472Z,5.30
2023-02-11T07:49:09.051Z,4.70
2023-02-11T07:49:42.983Z,4.57
2023-02-11T07:50:16.258Z,4.05
2023-02-11T07:50:49.068Z,4.57